Time;durP1;ratioP1;P1;durP2;ratioP2;P2;SDS_P1;SDS_P2;PMS_P1;PMS_P2;Temp;Humidity;BMP_temperature;BMP_pressure;BME280_temperature;BME280_humidity;BME280_pressure;Samples;Min_cycle;Max_cycle;Signal;HPM_P1;HPM_P2
2023/04/05 00:02:39;;;;;;;0.88;0.60;;;;;;;1.92;52.40;99975.28;6322586;28;20051;-75
2023/04/05 00:05:40;;;;;;;1.38;0.73;;;;;;;1.85;52.52;99984.03;6323917;28;20040;-74
2023/04/05 00:08:48;;;;;;;0.85;0.50;;;;;;;1.85;52.76;99978.88;6323842;28;20131;-75
2023/04/05 00:11:50;;;;;;;0.38;0.38;;;;;;;1.86;52.72;99977.16;6324008;28;20051;-74
2023/04/05 00:14:50;;;;;;;0.98;0.40;;;;;;;1.88;53.96;99977.97;6323641;28;20109;-75
2023/04/05 00:17:53;;;;;;;0.55;0.55;;;;;;;1.84;53.73;99976.38;6322543;28;20055;-75
2023/04/05 00:20:54;;;;;;;0.52;0.52;;;;;;;1.84;53.09;99974.63;6323343;28;20070;-75
2023/04/05 00:23:57;;;;;;;0.85;0.68;;;;;;;1.67;53.90;99974.22;6322303;28;20071;-75
2023/04/05 00:26:58;;;;;;;1.35;0.73;;;;;;;1.71;54.12;99974.13;6323442;28;20445;-75
2023/04/05 00:30:01;;;;;;;0.35;0.35;;;;;;;1.72;53.45;99965.50;6323333;28;20483;-75
2023/04/05 00:33:03;;;;;;;0.30;0.30;;;;;;;1.70;53.60;99974.16;6321915;28;20065;-75
2023/04/05 00:36:11;;;;;;;0.38;0.35;;;;;;;1.57;54.14;99961.59;6322160;28;20058;-75
2023/04/05 00:39:12;;;;;;;0.93;0.73;;;;;;;1.67;53.82;99966.50;6322021;28;20098;-75
2023/04/05 00:42:13;;;;;;;0.45;0.45;;;;;;;1.60;53.87;99956.38;6321677;28;20052;-75
2023/04/05 00:45:14;;;;;;;1.13;0.50;;;;;;;1.66;54.39;99962.25;6321205;28;20119;-75
2023/04/05 00:48:15;;;;;;;0.50;0.50;;;;;;;1.64;54.39;99962.28;6321582;28;20042;-75
2023/04/05 00:51:19;;;;;;;0.50;0.47;;;;;;;1.71;54.13;99956.09;6323000;28;20046;-75
2023/04/05 00:54:22;;;;;;;0.40;0.40;;;;;;;1.53;54.34;99954.84;6323012;28;20040;-75
2023/04/05 00:57:25;;;;;;;0.65;0.60;;;;;;;1.68;54.68;99955.34;6323002;28;20046;-75
2023/04/05 01:00:26;;;;;;;0.47;0.47;;;;;;;1.54;54.89;99953.94;6321578;28;20052;-75
2023/04/05 01:03:30;;;;;;;0.75;0.75;;;;;;;1.52;54.23;99954.88;6322863;28;20502;-75
2023/04/05 01:06:51;;;;;;;2.63;1.73;;;;;;;1.51;54.70;99958.34;6297652;28;20044;-75
2023/04/05 01:09:59;;;;;;;4.43;0.88;;;;;;;1.47;54.54;99952.44;6297777;28;20048;-75
2023/04/05 01:13:00;;;;;;;3.03;1.45;;;;;;;1.46;54.27;99953.28;6306574;28;20510;-75
2023/04/05 01:16:03;;;;;;;0.73;0.73;;;;;;;1.29;54.14;99943.44;6321895;28;20298;-75
2023/04/05 01:19:08;;;;;;;0.43;0.43;;;;;;;1.32;54.13;99958.81;6310971;28;20037;-75
2023/04/05 01:22:19;;;;;;;1.50;1.05;;;;;;;1.34;54.69;99954.47;6296325;28;20131;-75
2023/04/05 01:25:41;;;;;;;3.00;1.45;;;;;;;1.42;54.04;99959.41;6296445;28;20420;-75
2023/04/05 01:29:03;;;;;;;0.38;0.38;;;;;;;1.48;53.64;99953.25;6296623;28;20048;-75
2023/04/05 01:32:13;;;;;;;0.40;0.40;;;;;;;1.32;54.32;99952.78;6297186;28;20446;-74
2023/04/05 01:35:34;;;;;;;0.68;0.65;;;;;;;1.26;54.17;99953.81;6297440;28;20040;-75
2023/04/05 01:38:38;;;;;;;0.55;0.55;;;;;;;1.22;54.77;99944.50;6297582;28;20377;-74
2023/04/05 01:41:39;;;;;;;0.70;0.63;;;;;;;1.22;54.33;99946.22;6329566;28;20174;-75
2023/04/05 01:44:40;;;;;;;1.13;0.60;;;;;;;1.23;54.81;99946.16;6295385;28;20477;-71
2023/04/05 01:47:41;;;;;;;0.50;0.47;;;;;;;1.18;54.87;99935.16;6294335;28;20102;-70
2023/04/05 01:50:42;;;;;;;2.20;1.77;;;;;;;1.25;55.06;99938.41;6295597;28;20404;-71
2023/04/05 01:53:45;;;;;;;1.42;0.85;;;;;;;1.30;55.21;99936.59;6294463;28;20488;-71
2023/04/05 01:56:48;;;;;;;2.13;1.17;;;;;;;1.25;55.10;99941.81;6296401;28;20063;-71
2023/04/05 01:59:49;;;;;;;0.63;0.50;;;;;;;1.14;55.27;99939.53;6300475;28;20037;-72
2023/04/05 02:02:50;;;;;;;1.48;0.95;;;;;;;1.24;54.40;99936.75;6299488;28;20396;-72
2023/04/05 02:05:51;;;;;;;1.25;1.17;;;;;;;1.31;55.04;99940.84;6299740;28;20499;-72
2023/04/05 02:08:51;;;;;;;1.85;1.33;;;;;;;1.06;54.78;99933.72;6299396;28;20040;-71
2023/04/05 02:11:52;;;;;;;0.50;0.50;;;;;;;1.11;54.74;99929.34;6299419;28;20056;-71
2023/04/05 02:14:53;;;;;;;1.00;0.90;;;;;;;1.26;54.77;99927.28;6299047;28;20453;-71
2023/04/05 02:17:54;;;;;;;1.25;0.80;;;;;;;1.18;54.94;99927.44;6320665;28;20043;-71
2023/04/05 02:21:04;;;;;;;0.40;0.40;;;;;;;1.33;54.70;99939.06;6324666;28;20082;-71
2023/04/05 02:24:05;;;;;;;1.80;0.77;;;;;;;1.28;55.28;99933.22;6323581;28;20039;-71
2023/04/05 02:27:06;;;;;;;2.30;1.02;;;;;;;1.27;55.19;99934.09;6323438;28;20066;-71
2023/04/05 02:30:08;;;;;;;3.00;0.85;;;;;;;1.22;54.83;99930.78;6323408;28;20059;-72
2023/04/05 02:33:10;;;;;;;0.40;0.40;;;;;;;1.08;54.50;99931.97;6323120;28;20043;-71
2023/04/05 02:36:12;;;;;;;2.42;1.15;;;;;;;1.22;54.31;99926.50;6305458;28;20041;-72
2023/04/05 02:39:13;;;;;;;0.50;0.40;;;;;;;1.31;54.64;99931.38;6298174;28;20036;-71
2023/04/05 02:42:14;;;;;;;2.35;0.85;;;;;;;1.18;54.44;99935.16;6297719;28;20072;-71
2023/04/05 02:45:15;;;;;;;0.57;0.57;;;;;;;1.21;54.29;99935.06;6297813;28;20404;-71
2023/04/05 02:48:15;;;;;;;0.68;0.68;;;;;;;1.43;54.34;99942.28;6297842;28;20198;-71
2023/04/05 02:51:16;;;;;;;2.30;1.40;;;;;;;1.34;54.20;99938.19;6281330;28;20055;-71
2023/04/05 02:54:17;;;;;;;2.92;0.68;;;;;;;1.36;53.81;99936.41;6298717;28;20048;-71
2023/04/05 02:57:18;;;;;;;1.33;1.15;;;;;;;1.23;53.14;99943.59;6298881;28;20040;-72
2023/04/05 03:00:19;;;;;;;0.63;0.50;;;;;;;1.24;53.60;99942.72;6297548;28;20052;-71
2023/04/05 03:03:21;;;;;;;0.60;0.60;;;;;;;1.17;52.80;99938.59;6297402;28;20079;-71
2023/04/05 03:06:21;;;;;;;1.33;0.70;;;;;;;1.16;52.84;99942.06;6298593;28;20051;-71
2023/04/05 03:09:22;;;;;;;0.40;0.40;;;;;;;1.31;53.86;99941.69;6296378;28;20475;-71
2023/04/05 03:12:23;;;;;;;0.88;0.32;;;;;;;1.32;53.43;99937.38;6297288;28;20041;-71
2023/04/05 03:15:24;;;;;;;0.47;0.47;;;;;;;1.22;53.19;99938.50;6297023;28;20045;-71
2023/04/05 03:18:25;;;;;;;0.50;0.50;;;;;;;1.30;53.46;99939.16;6298148;28;20248;-70
2023/04/05 03:21:28;;;;;;;1.83;1.33;;;;;;;1.21;53.85;99937.63;6318298;28;20064;-74
2023/04/05 03:24:31;;;;;;;2.58;0.90;;;;;;;1.22;53.42;99928.22;6324995;28;20040;-74
2023/04/05 03:27:32;;;;;;;0.90;0.65;;;;;;;1.10;53.18;99935.34;6323682;28;20055;-75
2023/04/05 03:30:34;;;;;;;0.20;0.20;;;;;;;1.14;52.65;99934.38;6323746;28;20048;-75
2023/04/05 03:33:35;;;;;;;2.38;0.57;;;;;;;1.23;52.54;99932.47;6321899;28;20595;-71
2023/04/05 03:36:40;;;;;;;0.98;0.55;;;;;;;1.20;53.29;99923.94;6322982;28;20040;-71
2023/04/05 03:39:41;;;;;;;0.47;0.47;;;;;;;1.22;53.29;99941.09;6322850;28;20040;-71
2023/04/05 03:42:43;;;;;;;0.90;0.47;;;;;;;1.16;53.67;99936.94;6321624;28;20113;-72
2023/04/05 03:45:44;;;;;;;1.05;0.80;;;;;;;1.16;53.51;99935.19;6323093;28;20036;-71
2023/04/05 03:48:44;;;;;;;0.38;0.38;;;;;;;1.02;53.88;99929.53;6322797;28;20036;-71
2023/04/05 03:51:46;;;;;;;1.52;0.60;;;;;;;0.98;53.86;99928.75;6322635;28;20484;-72
2023/04/05 03:54:46;;;;;;;0.52;0.52;;;;;;;0.97;54.08;99936.53;6321253;28;20044;-71
2023/04/05 03:57:47;;;;;;;0.45;0.45;;;;;;;1.19;53.94;99940.28;6308807;28;20123;-71
2023/04/05 04:00:49;;;;;;;10.02;0.75;;;;;;;0.99;54.15;99938.16;6320864;28;20063;-71
2023/04/05 04:03:52;;;;;;;0.77;0.63;;;;;;;1.00;54.46;99936.44;6302619;28;20507;-72
2023/04/05 04:06:53;;;;;;;3.63;0.65;;;;;;;0.94;54.65;99945.13;6301559;28;20040;-71
2023/04/05 04:09:55;;;;;;;1.23;0.77;;;;;;;1.13;54.53;99948.13;6322250;28;20091;-72
2023/04/05 04:12:56;;;;;;;0.40;0.40;;;;;;;1.10;54.26;99943.06;6322073;28;20123;-72
2023/04/05 04:15:56;;;;;;;0.50;0.50;;;;;;;1.07;54.51;99938.00;6320802;28;20044;-71
2023/04/05 04:18:59;;;;;;;0.30;0.30;;;;;;;1.13;54.60;99945.56;6317140;28;20124;-71
2023/04/05 04:22:01;;;;;;;0.35;0.28;;;;;;;1.06;54.45;99945.72;6295399;28;20040;-71
2023/04/05 04:25:03;;;;;;;1.60;0.98;;;;;;;1.04;55.32;99945.75;6296735;28;20045;-71
2023/04/05 04:28:08;;;;;;;1.58;0.65;;;;;;;1.13;55.51;99944.69;6312327;28;20044;-72
2023/04/05 04:31:12;;;;;;;4.13;0.85;;;;;;;1.13;55.35;99940.41;6317101;28;20228;-71
2023/04/05 04:34:13;;;;;;;0.38;0.35;;;;;;;1.12;54.99;99940.44;6318855;28;20450;-71
2023/04/05 04:37:17;;;;;;;0.90;0.65;;;;;;;1.11;56.24;99942.19;6311917;28;20040;-72
2023/04/05 04:40:18;;;;;;;0.60;0.60;;;;;;;1.17;56.30;99947.19;6320129;28;20052;-71
2023/04/05 04:43:26;;;;;;;0.68;0.55;;;;;;;1.16;56.57;99952.34;6320229;28;20052;-71
2023/04/05 04:46:29;;;;;;;2.28;0.95;;;;;;;1.20;56.42;99944.50;6319992;28;20040;-71
2023/04/05 04:49:31;;;;;;;1.02;0.55;;;;;;;1.21;56.81;99942.78;6301564;28;20044;-71
2023/04/05 04:52:32;;;;;;;;;;;;;;;1.36;56.92;99949.25;6320445;28;20101;-72
2023/04/05 04:55:36;;;;;;;0.88;0.73;;;;;;;1.08;56.67;99949.13;6320017;28;19919;-71
2023/04/05 04:58:36;;;;;;;1.13;1.02;;;;;;;1.22;56.36;99946.22;6297667;28;20123;-72
2023/04/05 05:01:39;;;;;;;1.90;0.77;;;;;;;1.37;57.76;99950.97;6321178;28;20052;-72
2023/04/05 05:04:41;;;;;;;;;;;;;;;1.33;57.38;99952.75;6321877;28;20048;-71
2023/04/05 05:07:42;;;;;;;0.60;0.57;;;;;;;1.19;58.39;99954.81;6319001;28;20398;-71
2023/04/05 05:10:44;;;;;;;0.77;0.73;;;;;;;1.29;58.23;99956.28;6312820;28;20050;-71
2023/04/05 05:13:45;;;;;;;1.65;1.15;;;;;;;1.41;58.14;99961.13;6295994;28;20040;-74
2023/04/05 05:16:45;;;;;;;3.13;0.60;;;;;;;1.36;57.97;99962.13;6296467;28;20044;-75
2023/04/05 05:19:49;;;;;;;0.73;0.73;;;;;;;1.47;58.86;99973.00;6296391;28;20408;-75
2023/04/05 05:22:50;;;;;;;1.63;1.13;;;;;;;1.30;58.71;99964.88;6296357;28;20048;-75
2023/04/05 05:25:59;;;;;;;0.93;0.88;;;;;;;1.41;59.03;99961.13;6296396;28;20036;-75
2023/04/05 05:29:01;;;;;;;0.70;0.60;;;;;;;1.39;59.14;99962.91;6297648;28;20044;-75
2023/04/05 05:32:02;;;;;;;0.82;0.60;;;;;;;1.50;58.09;99962.63;6311297;28;20499;-75
2023/04/05 05:35:02;;;;;;;2.45;1.95;;;;;;;1.50;58.80;99972.91;6327496;28;20048;-75
2023/04/05 05:38:06;;;;;;;1.95;1.13;;;;;;;1.57;58.41;99966.75;6326301;28;20110;-75
2023/04/05 05:41:09;;;;;;;1.27;0.90;;;;;;;1.85;58.04;99975.47;6326231;28;20048;-75
2023/04/05 05:44:10;;;;;;;1.63;0.85;;;;;;;1.70;58.73;99974.16;6324920;28;20404;-72
2023/04/05 05:47:11;;;;;;;1.85;0.88;;;;;;;1.61;58.56;99975.22;6324433;28;20126;-71
2023/04/05 05:50:11;;;;;;;1.58;1.17;;;;;;;1.81;58.42;99978.13;6325921;28;20042;-75
2023/04/05 05:53:12;;;;;;;4.00;0.93;;;;;;;1.77;57.97;99970.50;6326946;28;20048;-75
2023/04/05 05:56:13;;;;;;;0.98;0.88;;;;;;;1.92;57.97;99983.00;6327176;28;20040;-75
2023/04/05 05:59:14;;;;;;;2.83;1.27;;;;;;;1.95;57.87;99980.31;6324723;28;20044;-71
2023/04/05 06:02:15;;;;;;;2.15;1.48;;;;;;;1.86;57.63;99972.03;6325103;28;20051;-71
2023/04/05 06:05:16;;;;;;;2.38;1.17;;;;;;;1.91;57.04;99967.59;6325467;28;20066;-71
2023/04/05 06:08:17;;;;;;;0.43;0.43;;;;;;;2.19;57.58;99972.84;6325936;28;20040;-75
2023/04/05 06:11:22;;;;;;;1.52;1.27;;;;;;;2.16;57.48;99976.34;6324765;28;20044;-72
2023/04/05 06:14:24;;;;;;;2.15;1.48;;;;;;;2.09;56.57;99973.97;6324902;28;20047;-72
2023/04/05 06:17:27;;;;;;;1.50;0.70;;;;;;;2.20;57.67;99975.38;6324843;28;20480;-75
2023/04/05 06:20:31;;;;;;;6.15;2.22;;;;;;;2.13;56.79;99983.31;6325270;28;20377;-76
2023/04/05 06:23:32;;;;;;;8.27;2.10;;;;;;;2.23;57.01;99982.16;6326011;28;20504;-72
2023/04/05 06:26:33;;;;;;;0.75;0.75;;;;;;;2.29;56.29;99979.41;6324766;28;20044;-72
2023/04/05 06:29:43;;;;;;;5.22;1.45;;;;;;;2.57;56.81;99997.50;6322098;28;20530;-75
2023/04/05 06:32:44;;;;;;;3.63;0.60;;;;;;;2.39;55.94;99986.00;6321803;28;20464;-75
2023/04/05 06:35:45;;;;;;;1.38;1.27;;;;;;;2.56;56.15;99992.38;6321268;28;20045;-72
2023/04/05 06:38:48;;;;;;;2.67;1.67;;;;;;;2.77;55.53;99986.59;6323358;28;20044;-72
2023/04/05 06:41:50;;;;;;;1.30;0.80;;;;;;;3.09;55.22;99994.22;6325291;28;20052;-75
2023/04/05 06:44:51;;;;;;;1.35;0.70;;;;;;;3.15;55.65;99979.44;6323158;28;20408;-75
2023/04/05 06:47:54;;;;;;;1.92;1.25;;;;;;;3.25;54.26;99979.13;6324513;28;20097;-75
2023/04/05 06:50:59;;;;;;;0.45;0.45;;;;;;;3.32;54.14;99993.53;6324671;28;20115;-75
2023/04/05 06:54:00;;;;;;;2.88;1.33;;;;;;;3.36;52.93;99985.63;6324392;28;20047;-75
2023/04/05 06:57:03;;;;;;;1.23;1.02;;;;;;;3.23;53.32;99992.06;6324384;28;20476;-75
2023/04/05 07:00:11;;;;;;;1.38;1.27;;;;;;;3.01;53.83;99997.06;6325175;28;20464;-75
2023/04/05 07:03:14;;;;;;;1.00;0.95;;;;;;;3.26;52.86;99983.41;6325501;28;20055;-75
2023/04/05 07:06:17;;;;;;;1.27;0.95;;;;;;;3.35;53.77;99983.09;6324202;28;20044;-75
2023/04/05 07:09:21;;;;;;;2.55;1.50;;;;;;;3.36;52.74;99990.78;6325156;28;20036;-75
2023/04/05 07:12:22;;;;;;;0.82;0.73;;;;;;;3.58;53.30;99998.69;6323665;28;20044;-75
2023/04/05 07:15:22;;;;;;;0.80;0.80;;;;;;;3.39;52.09;99995.00;6323726;28;20516;-75
2023/04/05 07:18:23;;;;;;;0.38;0.38;;;;;;;3.83;51.93;100000.44;6325064;28;20040;-75
2023/04/05 07:21:25;;;;;;;2.33;1.58;;;;;;;3.97;51.22;99980.13;6323537;28;20076;-75
2023/04/05 07:24:26;;;;;;;1.30;0.90;;;;;;;4.08;52.25;99986.66;6324794;28;20119;-75
2023/04/05 07:27:29;;;;;;;0.40;0.40;;;;;;;4.24;50.35;99998.13;6324670;28;20093;-75
2023/04/05 07:30:30;;;;;;;;;;;;;;;4.56;50.34;99994.38;6324016;28;20047;-75
2023/04/05 07:33:32;;;;;;;1.00;0.82;;;;;;;4.39;48.60;99999.34;6324673;28;19927;-75
2023/04/05 07:36:33;;;;;;;2.83;0.80;;;;;;;3.92;49.28;99986.38;6324593;28;20044;-75
2023/04/05 07:39:35;;;;;;;1.75;1.30;;;;;;;4.50;50.90;99991.19;6323475;28;20080;-75
2023/04/05 07:42:36;;;;;;;1.45;0.98;;;;;;;4.74;49.12;99995.44;6323589;28;20048;-75
2023/04/05 07:45:36;;;;;;;4.03;2.45;;;;;;;4.74;50.12;99994.59;6324394;28;20431;-75
2023/04/05 07:48:37;;;;;;;4.05;1.25;;;;;;;4.61;50.34;99991.63;6324300;28;20036;-75
2023/04/05 07:51:38;;;;;;;4.68;0.95;;;;;;;4.82;48.83;99995.16;6324171;28;20047;-75
2023/04/05 07:54:44;;;;;;;13.63;1.77;;;;;;;4.81;49.38;99994.28;6320966;28;20068;-72
2023/04/05 07:57:46;;;;;;;3.20;1.33;;;;;;;4.58;49.64;99996.91;6322158;28;20492;-71
2023/04/05 08:00:48;;;;;;;1.98;1.38;;;;;;;4.62;49.13;99991.56;6322244;28;20136;-72
2023/04/05 08:03:51;;;;;;;1.35;0.57;;;;;;;4.56;50.31;99999.53;6321198;28;20040;-71
2023/04/05 08:06:55;;;;;;;8.98;1.55;;;;;;;4.84;50.22;99988.19;6322025;28;20072;-72
2023/04/05 08:09:56;;;;;;;1.58;1.17;;;;;;;4.52;49.75;99986.81;6321101;28;20046;-72
2023/04/05 08:12:57;;;;;;;2.30;1.77;;;;;;;4.63;50.92;99977.75;6321776;28;20044;-72
2023/04/05 08:16:00;;;;;;;2.00;1.10;;;;;;;4.92;50.02;99987.88;6320861;28;20072;-72
2023/04/05 08:19:01;;;;;;;13.50;1.60;;;;;;;5.11;50.09;99991.44;6322221;28;20040;-72
2023/04/05 08:22:02;;;;;;;0.98;0.95;;;;;;;5.34;49.68;99992.25;6321738;28;20055;-72
2023/04/05 08:25:06;;;;;;;1.80;1.00;;;;;;;5.48;49.99;99997.72;6320775;28;20070;-72
2023/04/05 08:28:11;;;;;;;2.03;1.27;;;;;;;5.78;48.80;99994.75;6321280;28;20047;-72
2023/04/05 08:31:12;;;;;;;3.85;1.25;;;;;;;6.01;49.28;99991.22;6320717;28;20154;-72
2023/04/05 08:34:18;;;;;;;4.35;1.52;;;;;;;6.31;48.03;99996.81;6320222;28;20044;-72
2023/04/05 08:37:19;;;;;;;1.92;1.40;;;;;;;6.77;48.07;100007.69;6321564;28;20481;-72
2023/04/05 08:40:21;;;;;;;2.08;1.75;;;;;;;6.16;47.44;99989.72;6320919;28;20058;-72
2023/04/05 08:43:32;;;;;;;1.48;1.05;;;;;;;6.36;47.42;100000.06;6321566;28;20043;-72
2023/04/05 08:46:37;;;;;;;5.80;1.50;;;;;;;6.20;46.89;99999.03;6321166;28;20051;-72
2023/04/05 08:49:42;;;;;;;1.42;1.20;;;;;;;6.48;46.75;99998.66;6320300;28;20043;-72
2023/04/05 08:52:48;;;;;;;0.70;0.70;;;;;;;6.24;46.39;99998.84;6319848;28;20500;-72
2023/04/05 08:55:52;;;;;;;1.90;0.63;;;;;;;6.19;45.74;99994.75;6321128;28;20054;-71
2023/04/05 08:59:08;;;;;;;1.98;1.30;;;;;;;6.54;46.40;99995.78;6319902;28;20044;-72
2023/04/05 09:02:18;;;;;;;7.57;1.75;;;;;;;6.28;46.25;100004.75;6320040;28;20044;-72
2023/04/05 09:05:20;;;;;;;6.05;1.10;;;;;;;6.91;46.90;100001.88;6321145;28;20587;-72
2023/04/05 09:08:20;;;;;;;4.20;1.05;;;;;;;7.05;46.05;100001.22;6320269;28;20043;-72
2023/04/05 09:11:22;;;;;;;9.05;1.63;;;;;;;6.97;44.74;99992.97;6319418;28;20048;-72
2023/04/05 09:14:26;;;;;;;1.60;1.42;;;;;;;7.61;46.55;99994.19;6320824;28;20044;-72
2023/04/05 09:17:28;;;;;;;3.60;1.58;;;;;;;7.91;44.33;99984.03;6320965;28;20137;-71
2023/04/05 09:20:30;;;;;;;1.98;1.40;;;;;;;8.04;43.31;100000.66;6321500;28;20047;-75
2023/04/05 09:23:35;;;;;;;1.05;0.93;;;;;;;8.72;44.78;100004.13;6322972;28;20127;-75
2023/04/05 09:26:36;;;;;;;1.77;1.00;;;;;;;8.77;42.66;99989.94;6321083;28;20043;-76
2023/04/05 09:29:39;;;;;;;0.88;0.77;;;;;;;8.26;43.08;100002.16;6321485;28;20055;-75
2023/04/05 09:32:46;;;;;;;1.77;1.17;;;;;;;7.95;43.21;100000.28;6320988;28;20395;-75
2023/04/05 09:35:50;;;;;;;3.08;1.38;;;;;;;8.80;44.18;99994.13;6322682;28;20044;-75
2023/04/05 09:38:50;;;;;;;3.42;1.80;;;;;;;7.64;44.08;99996.66;6322221;28;20621;-76
2023/04/05 09:42:05;;;;;;;3.60;2.17;;;;;;;7.45;44.33;99986.31;6322228;28;20056;-75
2023/04/05 09:45:06;;;;;;;2.92;1.13;;;;;;;8.04;44.13;99985.06;6321224;28;20052;-75
2023/04/05 09:48:08;;;;;;;1.95;1.05;;;;;;;8.55;43.07;100005.84;6320894;28;20411;-75
2023/04/05 09:51:09;;;;;;;6.40;1.63;;;;;;;8.76;43.55;99984.81;6322498;28;20056;-75
2023/04/05 09:54:15;;;;;;;1.55;0.95;;;;;;;8.58;42.59;99987.47;6322027;28;20040;-76
2023/04/05 09:57:17;;;;;;;0.82;0.80;;;;;;;8.66;41.88;99981.88;6322476;28;20085;-76
2023/04/05 10:00:25;;;;;;;0.80;0.60;;;;;;;8.72;41.35;99985.91;6322221;28;20453;-75
2023/04/05 10:03:26;;;;;;;2.35;0.93;;;;;;;9.31;40.78;99986.09;6322404;28;20048;-76
2023/04/05 10:06:41;;;;;;;2.00;1.10;;;;;;;8.88;43.37;99974.56;6321015;28;20051;-75
2023/04/05 10:09:44;;;;;;;0.98;0.73;;;;;;;8.72;42.08;99981.53;6322257;28;20192;-75
2023/04/05 10:12:49;;;;;;;1.45;0.98;;;;;;;8.86;41.19;99975.59;6320834;28;20079;-75
2023/04/05 10:15:52;;;;;;;1.67;1.13;;;;;;;8.59;41.39;99975.34;6322242;28;20484;-75
2023/04/05 10:18:55;;;;;;;0.63;0.57;;;;;;;9.48;39.96;99979.00;6324041;28;20055;-76
2023/04/05 10:22:04;;;;;;;2.10;0.95;;;;;;;9.37;41.80;99976.19;6325451;28;20051;-76
2023/04/05 10:25:10;;;;;;;0.82;0.82;;;;;;;8.72;41.15;99971.13;6326013;28;20048;-75
2023/04/05 10:28:25;;;;;;;2.35;0.95;;;;;;;8.66;42.24;99974.91;6326309;28;20048;-75
2023/04/05 10:31:39;;;;;;;2.25;0.95;;;;;;;9.63;43.28;99979.03;6324886;28;20051;-76
2023/04/05 10:34:55;;;;;;;0.75;0.75;;;;;;;9.87;39.75;99972.38;6325193;28;20044;-75
2023/04/05 10:38:40;;;;;;;2.75;1.38;;;;;;;9.08;40.11;99980.44;6326152;28;20055;-76
2023/04/05 10:41:46;;;;;;;1.27;0.70;;;;;;;9.77;41.32;99971.25;6299724;28;20497;-75
2023/04/05 10:45:03;;;;;;;1.08;0.85;;;;;;;10.08;41.13;99974.66;6325107;28;20051;-75
2023/04/05 10:48:26;;;;;;;2.97;0.75;;;;;;;10.48;38.64;99980.91;6324854;28;20077;-75
2023/04/05 10:51:28;;;;;;;0.98;0.80;;;;;;;10.77;37.72;99980.00;6324849;28;20044;-76
2023/04/05 10:54:35;;;;;;;1.08;0.98;;;;;;;10.32;40.08;99982.78;6325854;28;20087;-75
2023/04/05 10:57:40;;;;;;;2.40;1.17;;;;;;;9.37;40.45;99978.78;6324264;28;20130;-75
2023/04/05 11:00:43;;;;;;;1.67;1.23;;;;;;;8.76;40.76;99977.84;6325627;28;20047;-75
2023/04/05 11:03:47;;;;;;;1.92;1.00;;;;;;;8.62;40.14;99985.56;6324152;28;20055;-76
2023/04/05 11:07:11;;;;;;;0.90;0.65;;;;;;;9.36;41.26;99979.69;6323816;28;20052;-76
2023/04/05 11:10:19;;;;;;;0.90;0.73;;;;;;;10.18;37.83;99980.16;6324284;28;20044;-76
2023/04/05 11:13:48;;;;;;;4.32;1.95;;;;;;;10.07;39.45;99976.41;6323884;28;20385;-72
2023/04/05 11:16:55;;;;;;;1.40;1.20;;;;;;;10.00;39.70;99969.88;6323291;28;20051;-72
2023/04/05 11:20:05;;;;;;;1.95;1.17;;;;;;;9.49;40.45;99972.00;6323183;28;20075;-72
2023/04/05 11:23:06;;;;;;;2.67;1.30;;;;;;;9.15;40.47;99984.38;6323163;28;20486;-72
2023/04/05 11:26:07;;;;;;;1.02;0.93;;;;;;;10.24;39.84;99982.38;6323255;28;20052;-72
2023/04/05 11:29:07;;;;;;;3.05;1.13;;;;;;;10.66;40.37;99981.53;6322583;28;20059;-72
2023/04/05 11:32:11;;;;;;;2.00;0.98;;;;;;;10.14;39.84;99982.09;6321374;28;20551;-72
2023/04/05 11:35:22;;;;;;;0.98;0.80;;;;;;;11.20;37.74;99985.09;6321661;28;20052;-73
2023/04/05 11:38:22;;;;;;;2.20;1.67;;;;;;;10.92;38.08;99973.84;6322762;28;20048;-72
2023/04/05 11:41:27;;;;;;;1.17;0.90;;;;;;;10.27;39.19;99983.03;6322520;28;20060;-73
2023/04/05 11:44:38;;;;;;;1.08;0.77;;;;;;;10.15;37.85;99989.00;6322589;28;20419;-72
2023/04/05 11:47:40;;;;;;;6.60;1.25;;;;;;;10.83;38.63;99979.63;6321294;28;20048;-72
2023/04/05 11:50:47;;;;;;;1.15;0.90;;;;;;;10.42;37.28;99986.50;6322277;28;20488;-72
2023/04/05 11:53:47;;;;;;;2.13;1.20;;;;;;;11.06;38.31;99976.41;6321101;28;20040;-72
2023/04/05 11:56:53;;;;;;;2.42;1.60;;;;;;;10.95;36.30;99975.41;6321177;28;20462;-73
2023/04/05 11:59:55;;;;;;;1.85;1.02;;;;;;;10.09;37.94;99978.94;6321189;28;20047;-73
2023/04/05 12:02:58;;;;;;;1.03;0.80;;;;;;;9.95;38.82;99979.75;6321004;28;20044;-72
2023/04/05 12:06:04;;;;;;;1.00;0.73;;;;;;;10.45;37.74;99985.47;6321060;28;20097;-72
2023/04/05 12:09:08;;;;;;;0.82;0.77;;;;;;;10.24;38.97;99974.56;6321964;28;20044;-72
2023/04/05 12:12:15;;;;;;;0.60;0.60;;;;;;;10.33;38.45;99981.00;6321883;28;20091;-72
2023/04/05 12:15:17;;;;;;;1.38;0.80;;;;;;;10.03;37.87;99976.72;6321838;28;20047;-72
2023/04/05 12:18:19;;;;;;;1.75;1.13;;;;;;;10.54;39.03;99977.06;6320823;28;20139;-72
2023/04/05 12:21:20;;;;;;;1.42;1.00;;;;;;;10.46;36.60;99974.97;6321737;28;20056;-72
2023/04/05 12:24:21;;;;;;;0.50;0.50;;;;;;;10.13;38.70;99967.41;6321671;28;20044;-72
2023/04/05 12:27:22;;;;;;;0.88;0.60;;;;;;;9.75;37.91;99962.69;6321679;28;20514;-71
2023/04/05 12:30:26;;;;;;;1.95;0.80;;;;;;;9.55;38.14;99963.03;6321572;28;20161;-71
2023/04/05 12:33:32;;;;;;;1.30;0.80;;;;;;;10.35;38.43;99977.38;6321379;28;20400;-72
2023/04/05 12:36:37;;;;;;;1.73;1.17;;;;;;;10.42;37.94;99960.44;6320570;28;20052;-72
2023/04/05 12:39:40;;;;;;;1.45;0.77;;;;;;;10.14;38.24;99968.22;6321260;28;20488;-72
2023/04/05 12:42:44;;;;;;;1.50;1.23;;;;;;;9.74;37.04;99954.94;6320622;28;20048;-72
2023/04/05 12:45:48;;;;;;;1.75;1.08;;;;;;;9.86;38.07;99954.22;6321493;28;20044;-72
2023/04/05 12:48:52;;;;;;;0.70;0.70;;;;;;;10.39;37.82;99962.38;6321143;28;20048;-73
2023/04/05 12:51:53;;;;;;;1.30;0.77;;;;;;;9.79;38.05;99958.16;6321249;28;20146;-73
2023/04/05 12:54:54;;;;;;;5.88;1.13;;;;;;;10.37;38.50;99962.47;6321178;28;20048;-72
2023/04/05 12:58:00;;;;;;;1.80;1.27;;;;;;;10.52;37.21;99952.84;6320143;28;20051;-72
2023/04/05 13:01:01;;;;;;;1.00;0.80;;;;;;;10.21;37.42;99956.47;6319788;28;20131;-72
2023/04/05 13:04:04;;;;;;;0.82;0.82;;;;;;;9.61;37.18;99957.44;6320096;28;20504;-72
2023/04/05 13:07:04;;;;;;;13.50;1.27;;;;;;;9.93;39.12;99952.13;6305697;28;20056;-72
2023/04/05 13:10:06;;;;;;;1.38;1.10;;;;;;;10.60;37.45;99942.75;6291403;28;20048;-72
2023/04/05 13:13:12;;;;;;;2.05;0.88;;;;;;;11.03;38.47;99953.09;6295790;28;20048;-72
2023/04/05 13:16:13;;;;;;;1.52;0.88;;;;;;;10.60;36.04;99944.53;6294699;28;20509;-72
2023/04/05 13:19:14;;;;;;;1.13;0.60;;;;;;;10.29;37.43;99943.81;6295892;28;20056;-72
2023/04/05 13:22:15;;;;;;;1.52;1.13;;;;;;;10.56;36.11;99941.28;6295412;28;20522;-72
2023/04/05 13:25:15;;;;;;;3.40;1.25;;;;;;;10.80;38.84;99949.34;6294677;28;20048;-72
2023/04/05 13:28:21;;;;;;;2.47;1.40;;;;;;;11.02;37.90;99943.59;6294384;28;20052;-72
2023/04/05 13:31:24;;;;;;;4.53;1.35;;;;;;;10.62;35.65;99940.06;6295905;28;20053;-72
2023/04/05 13:46:08;;;;;;;2.80;1.30;;;;;;;10.64;36.44;99932.97;6241259;27;1474022;-72
2023/04/05 13:49:09;;;;;;;0.93;0.82;;;;;;;10.99;36.61;99948.16;6264052;27;20637;-71
2023/04/05 13:52:10;;;;;;;5.97;1.17;;;;;;;10.38;36.08;99943.28;6246343;28;20053;-76
2023/04/05 13:55:11;;;;;;;1.98;1.10;;;;;;;10.66;37.53;99938.94;6246577;28;20045;-76
2023/04/05 13:58:15;;;;;;;1.48;0.90;;;;;;;9.73;36.42;99935.88;6264087;28;20046;-75
2023/04/05 14:01:16;;;;;;;0.80;0.80;;;;;;;10.19;36.50;99930.53;6264069;28;20136;-76
2023/04/05 14:04:17;;;;;;;3.70;1.40;;;;;;;10.11;37.52;99931.91;6263850;27;20439;-71
2023/04/05 14:07:19;;;;;;;2.78;0.80;;;;;;;10.25;36.16;99932.75;6246016;28;20125;-76
2023/04/05 14:10:22;;;;;;;2.00;1.20;;;;;;;9.90;37.77;99929.66;6263840;28;20136;-72
2023/04/05 14:13:23;;;;;;;1.20;1.10;;;;;;;9.71;38.02;99906.47;6263193;28;20048;-71
2023/04/05 14:16:24;;;;;;;1.00;0.77;;;;;;;9.96;38.95;99926.69;6263394;28;20057;-76
2023/04/05 14:19:25;;;;;;;0.90;0.82;;;;;;;10.31;37.17;99930.72;6246064;28;20485;-76
2023/04/05 14:22:25;;;;;;;4.22;1.52;;;;;;;10.45;36.71;99925.47;6245773;28;20045;-72
2023/04/05 14:25:29;;;;;;;2.25;1.45;;;;;;;10.12;37.08;99924.00;6263110;28;20058;-76
2023/04/05 14:28:29;;;;;;;1.75;0.82;;;;;;;9.93;37.75;99932.09;6245940;28;20053;-76
2023/04/05 14:31:30;;;;;;;2.70;1.15;;;;;;;10.32;37.02;99938.44;6245467;28;20412;-72
2023/04/05 14:34:32;;;;;;;2.25;0.85;;;;;;;10.17;37.58;99939.34;6245445;28;20101;-72
2023/04/05 14:37:33;;;;;;;1.27;0.80;;;;;;;10.18;37.78;99933.22;6245424;28;20089;-76
2023/04/05 14:40:36;;;;;;;0.93;0.77;;;;;;;10.48;36.39;99940.97;6245650;28;20094;-76
2023/04/05 14:43:37;;;;;;;0.90;0.68;;;;;;;9.98;37.55;99932.66;6263300;28;20093;-76
2023/04/05 14:46:40;;;;;;;4.07;1.50;;;;;;;10.00;36.82;99935.16;6231767;28;20050;-71